sensor_id;sensor_type;location;lat;lon;timestamp;P1;durP1;ratioP1;P2;durP2;ratioP2
11319;SDS011;5715;48.234;14.320;2022-09-12T00:01:17;1.80;;;1.47;;
11319;SDS011;5715;48.234;14.320;2022-09-12T00:04:08;2.23;;;2.00;;
11319;SDS011;5715;48.234;14.320;2022-09-12T00:06:57;1.40;;;1.30;;
11319;SDS011;5715;48.234;14.320;2022-09-12T00:09:45;1.53;;;1.43;;
11319;SDS011;5715;48.234;14.320;2022-09-12T00:12:32;1.80;;;1.70;;
11319;SDS011;5715;48.234;14.320;2022-09-12T00:15:20;6.73;;;1.83;;
11319;SDS011;5715;48.234;14.320;2022-09-12T00:18:08;1.50;;;1.37;;
11319;SDS011;5715;48.234;14.320;2022-09-12T00:21:02;1.20;;;1.20;;
11319;SDS011;5715;48.234;14.320;2022-09-12T00:23:51;1.70;;;1.60;;
11319;SDS011;5715;48.234;14.320;2022-09-12T00:26:39;1.60;;;1.50;;
11319;SDS011;5715;48.234;14.320;2022-09-12T00:29:26;1.30;;;1.20;;
11319;SDS011;5715;48.234;14.320;2022-09-12T00:32:14;5.10;;;1.40;;
11319;SDS011;5715;48.234;14.320;2022-09-12T00:35:01;1.50;;;1.40;;
11319;SDS011;5715;48.234;14.320;2022-09-12T00:37:49;1.80;;;1.67;;
11319;SDS011;5715;48.234;14.320;2022-09-12T00:40:37;2.83;;;1.67;;
11319;SDS011;5715;48.234;14.320;2022-09-12T00:49:28;5.07;;;2.23;;
11319;SDS011;5715;48.234;14.320;2022-09-12T00:55:26;2.00;;;1.67;;
11319;SDS011;5715;48.234;14.320;2022-09-12T00:58:29;2.83;;;1.93;;
11319;SDS011;5715;48.234;14.320;2022-09-12T01:01:25;1.40;;;1.30;;
11319;SDS011;5715;48.234;14.320;2022-09-12T01:04:19;3.30;;;1.77;;
11319;SDS011;5715;48.234;14.320;2022-09-12T01:07:10;2.23;;;2.03;;
11319;SDS011;5715;48.234;14.320;2022-09-12T01:10:01;7.87;;;1.60;;
11319;SDS011;5715;48.234;14.320;2022-09-12T01:12:51;3.27;;;1.67;;
11319;SDS011;5715;48.234;14.320;2022-09-12T01:15:38;1.57;;;1.47;;
11319;SDS011;5715;48.234;14.320;2022-09-12T01:31:54;1.80;;;1.70;;
11319;SDS011;5715;48.234;14.320;2022-09-12T01:34:52;1.77;;;1.67;;
11319;SDS011;5715;48.234;14.320;2022-09-12T01:44:45;7.80;;;1.90;;
11319;SDS011;5715;48.234;14.320;2022-09-12T01:50:53;2.33;;;1.73;;
11319;SDS011;5715;48.234;14.320;2022-09-12T01:54:01;1.70;;;1.60;;
11319;SDS011;5715;48.234;14.320;2022-09-12T01:56:59;1.30;;;1.20;;
11319;SDS011;5715;48.234;14.320;2022-09-12T01:59:55;1.70;;;1.60;;
11319;SDS011;5715;48.234;14.320;2022-09-12T02:02:50;1.60;;;1.50;;
11319;SDS011;5715;48.234;14.320;2022-09-12T02:12:16;2.20;;;2.00;;
11319;SDS011;5715;48.234;14.320;2022-09-12T02:15:12;2.43;;;1.57;;
11319;SDS011;5715;48.234;14.320;2022-09-12T02:18:04;11.43;;;2.60;;
11319;SDS011;5715;48.234;14.320;2022-09-12T02:20:54;1.43;;;1.33;;
11319;SDS011;5715;48.234;14.320;2022-09-12T02:23:44;1.93;;;1.70;;
11319;SDS011;5715;48.234;14.320;2022-09-12T02:26:46;2.40;;;1.90;;
11319;SDS011;5715;48.234;14.320;2022-09-12T02:29:44;1.93;;;1.80;;
11319;SDS011;5715;48.234;14.320;2022-09-12T02:35:31;2.43;;;2.07;;
11319;SDS011;5715;48.234;14.320;2022-09-12T02:38:45;2.50;;;2.30;;
11319;SDS011;5715;48.234;14.320;2022-09-12T02:41:34;1.70;;;1.60;;
11319;SDS011;5715;48.234;14.320;2022-09-12T02:44:22;1.73;;;1.63;;
11319;SDS011;5715;48.234;14.320;2022-09-12T02:50:21;6.37;;;1.97;;
11319;SDS011;5715;48.234;14.320;2022-09-12T02:53:09;1.83;;;1.73;;
11319;SDS011;5715;48.234;14.320;2022-09-12T02:55:58;1.87;;;1.70;;
11319;SDS011;5715;48.234;14.320;2022-09-12T02:58:46;1.80;;;1.57;;
11319;SDS011;5715;48.234;14.320;2022-09-12T03:05:12;8.63;;;2.30;;
11319;SDS011;5715;48.234;14.320;2022-09-12T03:08:53;1.70;;;1.60;;
11319;SDS011;5715;48.234;14.320;2022-09-12T03:12:14;1.87;;;1.50;;
11319;SDS011;5715;48.234;14.320;2022-09-12T03:28:05;2.03;;;1.80;;
11319;SDS011;5715;48.234;14.320;2022-09-12T03:31:10;1.70;;;1.60;;
11319;SDS011;5715;48.234;14.320;2022-09-12T03:34:01;3.73;;;2.03;;
11319;SDS011;5715;48.234;14.320;2022-09-12T03:36:49;3.77;;;2.63;;
11319;SDS011;5715;48.234;14.320;2022-09-12T03:39:37;1.50;;;1.40;;
11319;SDS011;5715;48.234;14.320;2022-09-12T03:42:24;12.63;;;2.07;;
11319;SDS011;5715;48.234;14.320;2022-09-12T03:45:12;1.47;;;1.37;;
11319;SDS011;5715;48.234;14.320;2022-09-12T03:48:00;2.33;;;1.80;;
11319;SDS011;5715;48.234;14.320;2022-09-12T03:50:47;5.50;;;2.00;;
11319;SDS011;5715;48.234;14.320;2022-09-12T03:53:35;1.67;;;1.57;;
11319;SDS011;5715;48.234;14.320;2022-09-12T03:56:23;4.10;;;1.67;;
11319;SDS011;5715;48.234;14.320;2022-09-12T03:59:11;1.97;;;1.60;;
11319;SDS011;5715;48.234;14.320;2022-09-12T04:01:58;2.40;;;1.93;;
11319;SDS011;5715;48.234;14.320;2022-09-12T04:04:46;6.87;;;1.70;;
11319;SDS011;5715;48.234;14.320;2022-09-12T04:07:34;1.60;;;1.50;;
11319;SDS011;5715;48.234;14.320;2022-09-12T04:10:21;2.47;;;1.73;;
11319;SDS011;5715;48.234;14.320;2022-09-12T04:13:09;2.20;;;1.97;;
11319;SDS011;5715;48.234;14.320;2022-09-12T04:15:57;2.90;;;2.13;;
11319;SDS011;5715;48.234;14.320;2022-09-12T04:18:46;1.80;;;1.70;;
11319;SDS011;5715;48.234;14.320;2022-09-12T04:21:34;1.77;;;1.67;;
11319;SDS011;5715;48.234;14.320;2022-09-12T04:24:21;1.97;;;1.73;;
11319;SDS011;5715;48.234;14.320;2022-09-12T04:27:09;1.90;;;1.70;;
11319;SDS011;5715;48.234;14.320;2022-09-12T04:29:56;2.10;;;1.50;;
11319;SDS011;5715;48.234;14.320;2022-09-12T04:32:45;1.50;;;1.33;;
11319;SDS011;5715;48.234;14.320;2022-09-12T04:35:34;1.90;;;1.50;;
11319;SDS011;5715;48.234;14.320;2022-09-12T04:38:22;1.90;;;1.63;;
11319;SDS011;5715;48.234;14.320;2022-09-12T04:44:05;3.07;;;1.70;;
11319;SDS011;5715;48.234;14.320;2022-09-12T04:46:57;1.63;;;1.53;;
11319;SDS011;5715;48.234;14.320;2022-09-12T04:49:44;2.23;;;1.33;;
11319;SDS011;5715;48.234;14.320;2022-09-12T04:52:34;1.70;;;1.60;;
11319;SDS011;5715;48.234;14.320;2022-09-12T04:55:21;1.77;;;1.67;;
11319;SDS011;5715;48.234;14.320;2022-09-12T04:58:11;2.00;;;1.80;;
11319;SDS011;5715;48.234;14.320;2022-09-12T05:01:05;2.83;;;2.53;;
11319;SDS011;5715;48.234;14.320;2022-09-12T05:04:00;2.47;;;2.07;;
11319;SDS011;5715;48.234;14.320;2022-09-12T05:06:48;1.97;;;1.77;;
11319;SDS011;5715;48.234;14.320;2022-09-12T05:09:35;2.33;;;1.50;;
11319;SDS011;5715;48.234;14.320;2022-09-12T05:12:23;2.70;;;1.90;;
11319;SDS011;5715;48.234;14.320;2022-09-12T05:15:10;14.80;;;2.00;;
11319;SDS011;5715;48.234;14.320;2022-09-12T05:17:58;5.20;;;2.40;;
11319;SDS011;5715;48.234;14.320;2022-09-12T05:20:45;3.50;;;3.20;;
11319;SDS011;5715;48.234;14.320;2022-09-12T05:23:33;2.97;;;2.50;;
11319;SDS011;5715;48.234;14.320;2022-09-12T05:26:22;2.30;;;2.07;;
11319;SDS011;5715;48.234;14.320;2022-09-12T05:29:10;5.40;;;4.97;;
11319;SDS011;5715;48.234;14.320;2022-09-12T05:31:58;7.93;;;2.80;;
11319;SDS011;5715;48.234;14.320;2022-09-12T05:34:46;2.97;;;2.30;;
11319;SDS011;5715;48.234;14.320;2022-09-12T05:37:33;3.20;;;2.90;;
11319;SDS011;5715;48.234;14.320;2022-09-12T05:40:21;3.07;;;2.60;;
11319;SDS011;5715;48.234;14.320;2022-09-12T05:43:09;3.20;;;2.57;;
11319;SDS011;5715;48.234;14.320;2022-09-12T05:46:01;2.97;;;2.60;;
11319;SDS011;5715;48.234;14.320;2022-09-12T05:49:04;2.97;;;2.75;;
11319;SDS011;5715;48.234;14.320;2022-09-12T05:51:57;3.77;;;3.20;;
11319;SDS011;5715;48.234;14.320;2022-09-12T05:54:44;3.20;;;2.90;;
11319;SDS011;5715;48.234;14.320;2022-09-12T05:57:34;4.35;;;2.70;;
11319;SDS011;5715;48.234;14.320;2022-09-12T06:00:22;7.07;;;3.25;;
11319;SDS011;5715;48.234;14.320;2022-09-12T06:03:09;8.82;;;3.53;;
11319;SDS011;5715;48.234;14.320;2022-09-12T06:05:59;7.63;;;7.13;;
11319;SDS011;5715;48.234;14.320;2022-09-12T06:08:50;3.73;;;2.93;;
11319;SDS011;5715;48.234;14.320;2022-09-12T06:11:41;3.53;;;2.83;;
11319;SDS011;5715;48.234;14.320;2022-09-12T06:14:30;5.00;;;3.33;;
11319;SDS011;5715;48.234;14.320;2022-09-12T06:17:18;3.85;;;2.88;;
11319;SDS011;5715;48.234;14.320;2022-09-12T06:20:06;5.72;;;3.92;;
11319;SDS011;5715;48.234;14.320;2022-09-12T06:22:54;4.05;;;3.40;;
11319;SDS011;5715;48.234;14.320;2022-09-12T06:25:45;6.32;;;3.22;;
11319;SDS011;5715;48.234;14.320;2022-09-12T06:28:36;3.57;;;2.90;;
11319;SDS011;5715;48.234;14.320;2022-09-12T06:31:29;4.27;;;3.87;;
11319;SDS011;5715;48.234;14.320;2022-09-12T06:34:20;10.43;;;3.97;;
11319;SDS011;5715;48.234;14.320;2022-09-12T06:37:07;11.65;;;5.57;;
11319;SDS011;5715;48.234;14.320;2022-09-12T06:39:55;6.30;;;4.05;;
11319;SDS011;5715;48.234;14.320;2022-09-12T06:42:42;6.93;;;4.83;;
11319;SDS011;5715;48.234;14.320;2022-09-12T06:45:30;4.33;;;3.87;;
11319;SDS011;5715;48.234;14.320;2022-09-12T06:48:18;7.45;;;4.43;;
11319;SDS011;5715;48.234;14.320;2022-09-12T06:51:06;5.43;;;4.47;;
11319;SDS011;5715;48.234;14.320;2022-09-12T06:53:59;9.30;;;5.07;;
11319;SDS011;5715;48.234;14.320;2022-09-12T06:56:46;8.73;;;5.35;;
11319;SDS011;5715;48.234;14.320;2022-09-12T06:59:34;6.85;;;4.63;;
11319;SDS011;5715;48.234;14.320;2022-09-12T07:02:21;5.88;;;4.20;;
11319;SDS011;5715;48.234;14.320;2022-09-12T07:05:11;6.13;;;4.60;;
11319;SDS011;5715;48.234;14.320;2022-09-12T07:07:59;8.18;;;5.57;;
11319;SDS011;5715;48.234;14.320;2022-09-12T07:10:47;8.43;;;4.67;;
11319;SDS011;5715;48.234;14.320;2022-09-12T07:13:34;5.82;;;4.70;;
11319;SDS011;5715;48.234;14.320;2022-09-12T07:16:22;9.73;;;5.25;;
11319;SDS011;5715;48.234;14.320;2022-09-12T07:19:10;7.07;;;4.63;;
11319;SDS011;5715;48.234;14.320;2022-09-12T07:21:57;9.85;;;6.45;;
11319;SDS011;5715;48.234;14.320;2022-09-12T07:24:45;7.25;;;5.28;;
11319;SDS011;5715;48.234;14.320;2022-09-12T07:27:33;8.40;;;5.68;;
11319;SDS011;5715;48.234;14.320;2022-09-12T07:30:21;8.35;;;5.15;;
11319;SDS011;5715;48.234;14.320;2022-09-12T07:33:08;6.30;;;4.60;;
11319;SDS011;5715;48.234;14.320;2022-09-12T07:35:59;8.73;;;5.55;;
11319;SDS011;5715;48.234;14.320;2022-09-12T07:38:57;10.15;;;5.53;;
11319;SDS011;5715;48.234;14.320;2022-09-12T07:41:44;10.27;;;4.97;;
11319;SDS011;5715;48.234;14.320;2022-09-12T07:44:32;8.63;;;4.72;;
11319;SDS011;5715;48.234;14.320;2022-09-12T07:47:19;7.60;;;4.90;;
11319;SDS011;5715;48.234;14.320;2022-09-12T07:50:07;6.85;;;4.50;;
11319;SDS011;5715;48.234;14.320;2022-09-12T07:52:55;6.38;;;4.95;;
11319;SDS011;5715;48.234;14.320;2022-09-12T07:55:42;6.45;;;4.65;;
11319;SDS011;5715;48.234;14.320;2022-09-12T07:58:30;5.25;;;3.97;;
11319;SDS011;5715;48.234;14.320;2022-09-12T08:01:20;9.05;;;5.22;;
11319;SDS011;5715;48.234;14.320;2022-09-12T08:04:11;8.70;;;4.53;;
11319;SDS011;5715;48.234;14.320;2022-09-12T08:06:58;6.40;;;4.78;;
11319;SDS011;5715;48.234;14.320;2022-09-12T08:09:45;6.43;;;4.40;;
11319;SDS011;5715;48.234;14.320;2022-09-12T08:12:33;10.77;;;5.05;;
11319;SDS011;5715;48.234;14.320;2022-09-12T08:15:22;6.38;;;4.68;;
11319;SDS011;5715;48.234;14.320;2022-09-12T08:18:10;7.18;;;5.00;;
11319;SDS011;5715;48.234;14.320;2022-09-12T08:20:58;6.30;;;4.35;;
11319;SDS011;5715;48.234;14.320;2022-09-12T08:23:52;9.00;;;5.43;;
11319;SDS011;5715;48.234;14.320;2022-09-12T08:26:51;6.80;;;5.03;;
11319;SDS011;5715;48.234;14.320;2022-09-12T08:29:39;5.90;;;4.65;;
11319;SDS011;5715;48.234;14.320;2022-09-12T08:32:27;7.97;;;4.10;;
11319;SDS011;5715;48.234;14.320;2022-09-12T08:35:14;8.70;;;4.25;;
11319;SDS011;5715;48.234;14.320;2022-09-12T08:38:02;7.00;;;4.88;;
11319;SDS011;5715;48.234;14.320;2022-09-12T08:40:51;9.07;;;5.22;;
11319;SDS011;5715;48.234;14.320;2022-09-12T08:47:15;5.65;;;4.03;;
11319;SDS011;5715;48.234;14.320;2022-09-12T08:50:20;6.30;;;4.28;;
11319;SDS011;5715;48.234;14.320;2022-09-12T08:53:18;7.20;;;5.57;;
11319;SDS011;5715;48.234;14.320;2022-09-12T08:56:10;7.30;;;5.32;;
11319;SDS011;5715;48.234;14.320;2022-09-12T08:58:58;8.50;;;5.15;;
11319;SDS011;5715;48.234;14.320;2022-09-12T09:01:45;6.82;;;5.18;;
11319;SDS011;5715;48.234;14.320;2022-09-12T09:04:44;6.72;;;4.95;;
11319;SDS011;5715;48.234;14.320;2022-09-12T09:18:17;9.32;;;5.75;;
11319;SDS011;5715;48.234;14.320;2022-09-12T09:24:54;7.47;;;4.85;;
11319;SDS011;5715;48.234;14.320;2022-09-12T09:30:49;9.35;;;6.15;;
11319;SDS011;5715;48.234;14.320;2022-09-12T09:33:38;8.10;;;6.22;;
11319;SDS011;5715;48.234;14.320;2022-09-12T09:39:51;7.50;;;5.88;;
11319;SDS011;5715;48.234;14.320;2022-09-12T09:43:14;10.85;;;6.30;;
11319;SDS011;5715;48.234;14.320;2022-09-12T09:46:08;8.40;;;7.22;;
11319;SDS011;5715;48.234;14.320;2022-09-12T09:48:57;8.10;;;6.03;;
11319;SDS011;5715;48.234;14.320;2022-09-12T09:51:51;8.82;;;5.72;;
11319;SDS011;5715;48.234;14.320;2022-09-12T09:54:46;10.07;;;5.50;;
11319;SDS011;5715;48.234;14.320;2022-09-12T09:57:43;5.65;;;4.47;;
11319;SDS011;5715;48.234;14.320;2022-09-12T10:00:33;5.63;;;4.22;;
11319;SDS011;5715;48.234;14.320;2022-09-12T10:03:24;8.48;;;5.47;;
11319;SDS011;5715;48.234;14.320;2022-09-12T10:06:40;6.07;;;4.85;;
11319;SDS011;5715;48.234;14.320;2022-09-12T10:09:34;5.90;;;4.43;;
11319;SDS011;5715;48.234;14.320;2022-09-12T10:12:26;5.68;;;4.50;;
11319;SDS011;5715;48.234;14.320;2022-09-12T10:15:16;5.15;;;3.80;;
11319;SDS011;5715;48.234;14.320;2022-09-12T10:18:11;4.65;;;3.40;;
11319;SDS011;5715;48.234;14.320;2022-09-12T10:21:34;5.75;;;4.07;;
11319;SDS011;5715;48.234;14.320;2022-09-12T10:24:45;5.82;;;3.53;;
11319;SDS011;5715;48.234;14.320;2022-09-12T10:27:38;4.80;;;3.45;;
11319;SDS011;5715;48.234;14.320;2022-09-12T10:30:28;3.70;;;3.05;;
11319;SDS011;5715;48.234;14.320;2022-09-12T10:33:15;4.65;;;3.38;;
11319;SDS011;5715;48.234;14.320;2022-09-12T10:36:04;3.42;;;3.03;;
11319;SDS011;5715;48.234;14.320;2022-09-12T10:38:52;3.28;;;2.85;;
11319;SDS011;5715;48.234;14.320;2022-09-12T10:41:46;6.50;;;3.50;;
11319;SDS011;5715;48.234;14.320;2022-09-12T10:44:33;6.88;;;2.95;;
11319;SDS011;5715;48.234;14.320;2022-09-12T10:47:21;3.10;;;2.55;;
11319;SDS011;5715;48.234;14.320;2022-09-12T10:50:21;4.57;;;2.88;;
11319;SDS011;5715;48.234;14.320;2022-09-12T10:53:19;4.03;;;3.05;;
11319;SDS011;5715;48.234;14.320;2022-09-12T10:56:33;3.28;;;2.35;;
11319;SDS011;5715;48.234;14.320;2022-09-12T11:03:22;3.28;;;2.63;;
11319;SDS011;5715;48.234;14.320;2022-09-12T11:06:32;5.00;;;2.22;;
11319;SDS011;5715;48.234;14.320;2022-09-12T11:16:01;4.07;;;2.35;;
11319;SDS011;5715;48.234;14.320;2022-09-12T11:19:32;2.25;;;1.77;;
11319;SDS011;5715;48.234;14.320;2022-09-12T11:29:58;2.05;;;1.73;;
11319;SDS011;5715;48.234;14.320;2022-09-12T11:36:19;2.00;;;1.80;;
11319;SDS011;5715;48.234;14.320;2022-09-12T11:39:43;2.38;;;2.13;;
11319;SDS011;5715;48.234;14.320;2022-09-12T11:42:41;2.38;;;1.85;;
11319;SDS011;5715;48.234;14.320;2022-09-12T11:45:33;3.30;;;2.05;;
11319;SDS011;5715;48.234;14.320;2022-09-12T11:52:15;3.35;;;1.45;;
11319;SDS011;5715;48.234;14.320;2022-09-12T11:55:20;3.08;;;1.92;;
11319;SDS011;5715;48.234;14.320;2022-09-12T11:58:13;2.05;;;1.83;;
11319;SDS011;5715;48.234;14.320;2022-09-12T12:01:14;8.52;;;2.00;;
11319;SDS011;5715;48.234;14.320;2022-09-12T12:04:11;1.73;;;1.60;;
11319;SDS011;5715;48.234;14.320;2022-09-12T12:07:08;1.67;;;1.58;;
11319;SDS011;5715;48.234;14.320;2022-09-12T12:09:57;2.05;;;1.50;;
11319;SDS011;5715;48.234;14.320;2022-09-12T12:12:44;6.32;;;1.95;;
11319;SDS011;5715;48.234;14.320;2022-09-12T12:15:34;1.90;;;1.63;;
11319;SDS011;5715;48.234;14.320;2022-09-12T12:18:25;2.13;;;1.92;;
11319;SDS011;5715;48.234;14.320;2022-09-12T12:24:26;1.95;;;1.85;;
11319;SDS011;5715;48.234;14.320;2022-09-12T12:36:08;1.67;;;1.58;;
11319;SDS011;5715;48.234;14.320;2022-09-12T12:48:14;1.83;;;1.70;;
11319;SDS011;5715;48.234;14.320;2022-09-12T12:51:15;2.00;;;1.85;;
11319;SDS011;5715;48.234;14.320;2022-09-12T12:54:29;11.13;;;2.15;;
11319;SDS011;5715;48.234;14.320;2022-09-12T12:57:22;1.65;;;1.55;;
11319;SDS011;5715;48.234;14.320;2022-09-12T13:03:16;1.50;;;1.40;;
11319;SDS011;5715;48.234;14.320;2022-09-12T13:06:22;1.80;;;1.50;;
11319;SDS011;5715;48.234;14.320;2022-09-12T13:09:33;1.98;;;1.50;;
11319;SDS011;5715;48.234;14.320;2022-09-12T13:12:32;2.03;;;1.50;;
11319;SDS011;5715;48.234;14.320;2022-09-12T13:18:24;2.42;;;1.75;;
11319;SDS011;5715;48.234;14.320;2022-09-12T13:21:34;2.08;;;1.52;;
11319;SDS011;5715;48.234;14.320;2022-09-12T13:24:22;1.40;;;1.30;;
11319;SDS011;5715;48.234;14.320;2022-09-12T13:27:20;1.52;;;1.42;;
11319;SDS011;5715;48.234;14.320;2022-09-12T13:30:14;1.85;;;1.75;;
11319;SDS011;5715;48.234;14.320;2022-09-12T13:33:18;2.50;;;2.30;;
11319;SDS011;5715;48.234;14.320;2022-09-12T13:46:00;1.40;;;1.30;;
11319;SDS011;5715;48.234;14.320;2022-09-12T13:48:48;3.03;;;1.75;;
11319;SDS011;5715;48.234;14.320;2022-09-12T13:51:36;2.22;;;1.40;;
11319;SDS011;5715;48.234;14.320;2022-09-12T13:54:23;2.53;;;2.05;;
11319;SDS011;5715;48.234;14.320;2022-09-12T14:00:25;1.80;;;1.70;;
11319;SDS011;5715;48.234;14.320;2022-09-12T14:03:59;1.70;;;1.60;;
11319;SDS011;5715;48.234;14.320;2022-09-12T14:07:01;1.50;;;1.40;;
11319;SDS011;5715;48.234;14.320;2022-09-12T14:10:04;1.70;;;1.50;;
11319;SDS011;5715;48.234;14.320;2022-09-12T14:12:53;2.22;;;2.03;;
11319;SDS011;5715;48.234;14.320;2022-09-12T14:15:43;3.25;;;1.90;;
11319;SDS011;5715;48.234;14.320;2022-09-12T14:18:35;1.70;;;1.55;;
11319;SDS011;5715;48.234;14.320;2022-09-12T14:24:18;2.03;;;1.60;;
11319;SDS011;5715;48.234;14.320;2022-09-12T14:27:10;1.63;;;1.52;;
11319;SDS011;5715;48.234;14.320;2022-09-12T14:30:04;1.90;;;1.70;;
11319;SDS011;5715;48.234;14.320;2022-09-12T14:33:17;1.50;;;1.40;;
11319;SDS011;5715;48.234;14.320;2022-09-12T14:42:20;1.90;;;1.80;;
11319;SDS011;5715;48.234;14.320;2022-09-12T14:45:26;2.50;;;1.70;;
11319;SDS011;5715;48.234;14.320;2022-09-12T14:48:17;2.08;;;1.85;;
11319;SDS011;5715;48.234;14.320;2022-09-12T14:51:05;2.17;;;1.60;;
11319;SDS011;5715;48.234;14.320;2022-09-12T14:53:53;2.72;;;1.60;;
11319;SDS011;5715;48.234;14.320;2022-09-12T14:56:41;1.38;;;1.27;;
11319;SDS011;5715;48.234;14.320;2022-09-12T14:59:40;7.88;;;1.75;;
11319;SDS011;5715;48.234;14.320;2022-09-12T15:02:28;2.50;;;1.67;;
11319;SDS011;5715;48.234;14.320;2022-09-12T15:05:17;3.70;;;1.48;;
11319;SDS011;5715;48.234;14.320;2022-09-12T15:08:13;1.48;;;1.38;;
11319;SDS011;5715;48.234;14.320;2022-09-12T15:11:04;3.30;;;1.55;;
11319;SDS011;5715;48.234;14.320;2022-09-12T15:13:53;1.30;;;1.20;;
11319;SDS011;5715;48.234;14.320;2022-09-12T15:16:40;2.13;;;1.45;;
11319;SDS011;5715;48.234;14.320;2022-09-12T15:19:28;4.93;;;1.50;;
11319;SDS011;5715;48.234;14.320;2022-09-12T15:22:16;1.90;;;1.50;;
11319;SDS011;5715;48.234;14.320;2022-09-12T15:25:09;1.30;;;1.20;;
11319;SDS011;5715;48.234;14.320;2022-09-12T15:27:58;5.78;;;1.63;;
11319;SDS011;5715;48.234;14.320;2022-09-12T15:30:48;1.50;;;1.40;;
11319;SDS011;5715;48.234;14.320;2022-09-12T15:33:39;1.67;;;1.58;;
11319;SDS011;5715;48.234;14.320;2022-09-12T15:36:26;1.42;;;1.33;;
11319;SDS011;5715;48.234;14.320;2022-09-12T15:39:14;1.40;;;1.30;;
11319;SDS011;5715;48.234;14.320;2022-09-12T15:42:02;1.95;;;1.70;;
11319;SDS011;5715;48.234;14.320;2022-09-12T15:44:49;1.75;;;1.65;;
11319;SDS011;5715;48.234;14.320;2022-09-12T15:47:39;2.05;;;1.88;;
11319;SDS011;5715;48.234;14.320;2022-09-12T15:50:26;1.60;;;1.50;;
11319;SDS011;5715;48.234;14.320;2022-09-12T15:53:14;1.45;;;1.35;;
11319;SDS011;5715;48.234;14.320;2022-09-12T15:56:03;3.90;;;1.63;;
11319;SDS011;5715;48.234;14.320;2022-09-12T15:58:50;1.80;;;1.55;;
11319;SDS011;5715;48.234;14.320;2022-09-12T16:01:45;2.05;;;1.80;;
11319;SDS011;5715;48.234;14.320;2022-09-12T16:04:33;1.52;;;1.42;;
11319;SDS011;5715;48.234;14.320;2022-09-12T16:07:20;1.30;;;1.20;;
11319;SDS011;5715;48.234;14.320;2022-09-12T16:10:12;2.97;;;1.30;;
11319;SDS011;5715;48.234;14.320;2022-09-12T16:13:06;2.45;;;1.40;;
11319;SDS011;5715;48.234;14.320;2022-09-12T16:15:56;2.97;;;1.90;;
11319;SDS011;5715;48.234;14.320;2022-09-12T16:18:46;1.80;;;1.55;;
11319;SDS011;5715;48.234;14.320;2022-09-12T16:21:34;1.67;;;1.58;;
11319;SDS011;5715;48.234;14.320;2022-09-12T16:24:22;2.38;;;2.03;;
11319;SDS011;5715;48.234;14.320;2022-09-12T16:27:10;2.17;;;1.77;;
11319;SDS011;5715;48.234;14.320;2022-09-12T16:29:57;4.22;;;2.70;;
11319;SDS011;5715;48.234;14.320;2022-09-12T16:32:45;2.67;;;2.30;;
11319;SDS011;5715;48.234;14.320;2022-09-12T16:35:33;2.80;;;1.98;;
11319;SDS011;5715;48.234;14.320;2022-09-12T16:38:20;2.33;;;1.60;;
11319;SDS011;5715;48.234;14.320;2022-09-12T16:41:08;2.67;;;1.90;;
11319;SDS011;5715;48.234;14.320;2022-09-12T16:43:57;4.68;;;2.00;;
11319;SDS011;5715;48.234;14.320;2022-09-12T16:46:44;2.20;;;1.90;;
11319;SDS011;5715;48.234;14.320;2022-09-12T16:49:32;2.83;;;2.15;;
11319;SDS011;5715;48.234;14.320;2022-09-12T16:52:20;2.53;;;2.17;;
11319;SDS011;5715;48.234;14.320;2022-09-12T16:55:07;2.35;;;2.13;;
11319;SDS011;5715;48.234;14.320;2022-09-12T16:57:55;6.18;;;2.45;;
11319;SDS011;5715;48.234;14.320;2022-09-12T17:00:43;2.20;;;2.00;;
11319;SDS011;5715;48.234;14.320;2022-09-12T17:03:31;5.15;;;2.50;;
11319;SDS011;5715;48.234;14.320;2022-09-12T17:06:19;2.28;;;2.08;;
11319;SDS011;5715;48.234;14.320;2022-09-12T17:09:07;4.30;;;2.60;;
11319;SDS011;5715;48.234;14.320;2022-09-12T17:11:56;3.28;;;2.53;;
11319;SDS011;5715;48.234;14.320;2022-09-12T17:14:44;6.63;;;2.80;;
11319;SDS011;5715;48.234;14.320;2022-09-12T17:17:31;2.58;;;2.38;;
11319;SDS011;5715;48.234;14.320;2022-09-12T17:20:19;3.22;;;2.95;;
11319;SDS011;5715;48.234;14.320;2022-09-12T17:23:07;5.40;;;3.50;;
11319;SDS011;5715;48.234;14.320;2022-09-12T17:25:55;3.85;;;3.55;;
11319;SDS011;5715;48.234;14.320;2022-09-12T17:28:43;3.75;;;3.45;;
11319;SDS011;5715;48.234;14.320;2022-09-12T17:31:31;6.70;;;6.32;;
11319;SDS011;5715;48.234;14.320;2022-09-12T17:34:19;3.58;;;3.17;;
11319;SDS011;5715;48.234;14.320;2022-09-12T17:37:06;3.00;;;2.70;;
11319;SDS011;5715;48.234;14.320;2022-09-12T17:39:54;2.08;;;1.88;;
11319;SDS011;5715;48.234;14.320;2022-09-12T17:42:41;2.92;;;2.65;;
11319;SDS011;5715;48.234;14.320;2022-09-12T17:45:29;2.95;;;2.33;;
11319;SDS011;5715;48.234;14.320;2022-09-12T17:48:17;2.58;;;2.38;;
11319;SDS011;5715;48.234;14.320;2022-09-12T17:51:06;3.33;;;3.13;;
11319;SDS011;5715;48.234;14.320;2022-09-12T17:54:00;3.10;;;2.90;;
11319;SDS011;5715;48.234;14.320;2022-09-12T17:56:57;3.92;;;3.63;;
11319;SDS011;5715;48.234;14.320;2022-09-12T17:59:45;3.03;;;2.78;;
11319;SDS011;5715;48.234;14.320;2022-09-12T18:02:33;5.55;;;3.35;;
11319;SDS011;5715;48.234;14.320;2022-09-12T18:05:21;7.85;;;3.03;;
11319;SDS011;5715;48.234;14.320;2022-09-12T18:08:09;3.53;;;3.15;;
11319;SDS011;5715;48.234;14.320;2022-09-12T18:11:02;3.20;;;2.90;;
11319;SDS011;5715;48.234;14.320;2022-09-12T18:13:51;3.25;;;2.55;;
11319;SDS011;5715;48.234;14.320;2022-09-12T18:16:38;2.50;;;2.30;;
11319;SDS011;5715;48.234;14.320;2022-09-12T18:19:26;3.05;;;2.85;;
11319;SDS011;5715;48.234;14.320;2022-09-12T18:22:14;4.85;;;3.17;;
11319;SDS011;5715;48.234;14.320;2022-09-12T18:25:01;3.40;;;3.10;;
11319;SDS011;5715;48.234;14.320;2022-09-12T18:27:49;3.70;;;3.20;;
11319;SDS011;5715;48.234;14.320;2022-09-12T18:30:37;4.27;;;3.43;;
11319;SDS011;5715;48.234;14.320;2022-09-12T18:33:26;12.90;;;3.40;;
11319;SDS011;5715;48.234;14.320;2022-09-12T18:36:14;7.63;;;4.43;;
11319;SDS011;5715;48.234;14.320;2022-09-12T18:39:03;3.85;;;3.17;;
11319;SDS011;5715;48.234;14.320;2022-09-12T18:41:51;15.43;;;3.80;;
11319;SDS011;5715;48.234;14.320;2022-09-12T18:44:39;3.75;;;3.05;;
11319;SDS011;5715;48.234;14.320;2022-09-12T18:47:26;3.83;;;3.40;;
11319;SDS011;5715;48.234;14.320;2022-09-12T18:50:14;10.45;;;3.35;;
11319;SDS011;5715;48.234;14.320;2022-09-12T18:53:01;4.22;;;3.78;;
11319;SDS011;5715;48.234;14.320;2022-09-12T18:55:49;4.43;;;3.63;;
11319;SDS011;5715;48.234;14.320;2022-09-12T18:58:37;2.83;;;2.63;;
11319;SDS011;5715;48.234;14.320;2022-09-12T19:01:28;4.00;;;3.60;;
11319;SDS011;5715;48.234;14.320;2022-09-12T19:04:21;9.45;;;3.85;;
11319;SDS011;5715;48.234;14.320;2022-09-12T19:07:09;3.43;;;3.13;;
11319;SDS011;5715;48.234;14.320;2022-09-12T19:09:56;3.65;;;3.35;;
11319;SDS011;5715;48.234;14.320;2022-09-12T19:12:44;3.87;;;3.47;;
11319;SDS011;5715;48.234;14.320;2022-09-12T19:15:31;3.33;;;2.77;;
11319;SDS011;5715;48.234;14.320;2022-09-12T19:18:19;3.80;;;3.40;;
11319;SDS011;5715;48.234;14.320;2022-09-12T19:21:07;3.43;;;2.63;;
11319;SDS011;5715;48.234;14.320;2022-09-12T19:24:08;2.65;;;2.45;;
11319;SDS011;5715;48.234;14.320;2022-09-12T19:26:56;4.27;;;3.53;;
11319;SDS011;5715;48.234;14.320;2022-09-12T19:29:44;4.33;;;3.30;;
11319;SDS011;5715;48.234;14.320;2022-09-12T19:32:31;3.37;;;3.07;;
11319;SDS011;5715;48.234;14.320;2022-09-12T19:35:19;8.93;;;3.20;;
11319;SDS011;5715;48.234;14.320;2022-09-12T19:38:06;4.17;;;3.50;;
11319;SDS011;5715;48.234;14.320;2022-09-12T19:40:57;4.33;;;3.27;;
11319;SDS011;5715;48.234;14.320;2022-09-12T19:43:47;7.70;;;2.73;;
11319;SDS011;5715;48.234;14.320;2022-09-12T19:46:35;3.30;;;2.73;;
11319;SDS011;5715;48.234;14.320;2022-09-12T19:49:22;3.83;;;3.50;;
11319;SDS011;5715;48.234;14.320;2022-09-12T19:52:10;3.87;;;3.57;;
11319;SDS011;5715;48.234;14.320;2022-09-12T19:55:02;5.67;;;3.50;;
11319;SDS011;5715;48.234;14.320;2022-09-12T19:57:50;5.27;;;4.07;;